Brookings, Oregon
Current Conditions -  °F | °C
As of 5:56 PM on Sunday 21 Dec 2014 (Local Time) from KBOK Reporting Station
Light Rain Light Rain  
Wind Chill: 56°   Ceiling: 100
Heat Index: 56°   Visibility: 0.5mi
Dew Point: 56°   Wind: 0mph
Humidity: 100%   Direction: NA
Pressure: 30.29"   Gusts: NA
Location:  42.05°N, 124.28°W
Report Text: KBOK 220156Z AUTO 00000KT 1/2SM -RA FG OVC001 13/13 A3029 RMK AO2 T01330133 P0008 SLP259
Loading
Personal Weather Stations






























Interactive Weather Map New forecast layout! Learn more

10-Day Weather Forecast

Advertisements
Track Severe Weather on mobile